createdAt,value
2022-12-17T00:02:34.884Z,1.20
2022-12-17T00:05:19.997Z,1.20
2022-12-17T00:08:05.474Z,1.20
2022-12-17T00:10:50.836Z,1.10
2022-12-17T00:13:40.739Z,1.20
2022-12-17T00:16:26.405Z,1.20
2022-12-17T00:19:11.631Z,1.20
2022-12-17T00:21:57.039Z,1.10
2022-12-17T00:24:42.942Z,1.10
2022-12-17T00:27:28.385Z,1.10
2022-12-17T00:30:13.815Z,1.10
2022-12-17T00:32:59.204Z,1.40
2022-12-17T00:35:44.794Z,1.10
2022-12-17T00:38:37.296Z,1.80
2022-12-17T00:41:22.759Z,1.10
2022-12-17T00:44:08.026Z,1.10
2022-12-17T00:46:53.873Z,1.40
2022-12-17T00:49:39.203Z,1.10
2022-12-17T00:52:24.633Z,1.10
2022-12-17T00:55:10.118Z,1.10
2022-12-17T00:57:55.563Z,1.10
2022-12-17T01:00:42.099Z,1.10
2022-12-17T01:03:29.954Z,1.10
2022-12-17T01:06:15.443Z,1.00
2022-12-17T01:09:00.980Z,1.00
2022-12-17T01:11:46.435Z,0.90
2022-12-17T01:14:32.032Z,0.90
2022-12-17T01:17:17.383Z,0.90
2022-12-17T01:20:02.937Z,0.80
2022-12-17T01:22:48.552Z,0.80
2022-12-17T01:25:34.007Z,0.80
2022-12-17T01:28:19.353Z,0.80
2022-12-17T01:31:04.726Z,0.70
2022-12-17T01:33:50.137Z,0.70
2022-12-17T01:36:35.616Z,0.70
2022-12-17T01:39:21.013Z,0.80
2022-12-17T01:42:17.088Z,0.70
2022-12-17T01:45:14.427Z,0.70
2022-12-17T01:48:02.341Z,0.70
2022-12-17T01:50:51.292Z,0.70
2022-12-17T01:53:40.641Z,0.70
2022-12-17T01:56:27.849Z,1.50
2022-12-17T01:59:13.267Z,0.70
2022-12-17T02:01:58.764Z,0.70
2022-12-17T02:04:44.895Z,1.70
2022-12-17T02:07:37.318Z,0.60
2022-12-17T02:10:44.300Z,0.60
2022-12-17T02:13:37.991Z,0.60
2022-12-17T02:16:32.318Z,0.60
2022-12-17T02:19:54.160Z,0.60
2022-12-17T02:22:55.422Z,0.60
2022-12-17T02:25:55.712Z,0.60
2022-12-17T02:28:41.217Z,0.50
2022-12-17T02:31:27.586Z,0.90
2022-12-17T02:34:13.731Z,0.60
2022-12-17T02:36:59.073Z,0.50
2022-12-17T02:39:44.630Z,0.50
2022-12-17T02:42:29.985Z,0.50
2022-12-17T02:45:15.649Z,0.40
2022-12-17T02:48:01.650Z,0.50
2022-12-17T02:50:47.177Z,0.40
2022-12-17T02:53:32.652Z,0.40
2022-12-17T02:56:18.278Z,0.40
2022-12-17T02:59:03.460Z,0.30
2022-12-17T03:01:49.156Z,0.30
2022-12-17T03:04:34.352Z,0.40
2022-12-17T03:07:19.799Z,0.30
2022-12-17T03:10:05.303Z,0.30
2022-12-17T03:12:52.191Z,0.30
2022-12-17T03:15:37.520Z,0.30
2022-12-17T03:18:22.891Z,0.30
2022-12-17T03:21:11.698Z,0.30
2022-12-17T03:23:57.199Z,0.30
2022-12-17T03:26:42.467Z,0.30
2022-12-17T03:29:27.915Z,0.30
2022-12-17T03:32:13.411Z,0.30
2022-12-17T03:34:58.751Z,0.20
2022-12-17T03:37:44.080Z,0.20
2022-12-17T03:40:29.472Z,0.20
2022-12-17T03:43:14.865Z,0.20
2022-12-17T03:46:00.377Z,0.20
2022-12-17T03:48:45.628Z,1.20
2022-12-17T03:51:31.164Z,0.20
2022-12-17T03:54:16.500Z,0.20
2022-12-17T03:57:01.873Z,0.20
2022-12-17T03:59:47.229Z,0.20
2022-12-17T04:02:32.628Z,0.20
2022-12-17T04:05:20.394Z,0.20
2022-12-17T04:08:06.187Z,0.10
2022-12-17T04:10:51.604Z,0.20
2022-12-17T04:13:40.715Z,0.10
2022-12-17T04:16:27.157Z,0.10
2022-12-17T04:19:12.586Z,0.10
2022-12-17T04:21:58.131Z,0.10
2022-12-17T04:24:43.582Z,0.00
2022-12-17T04:27:28.989Z,0.00
2022-12-17T04:30:14.296Z,0.00
2022-12-17T04:32:59.758Z,0.00
2022-12-17T04:35:45.224Z,0.00
2022-12-17T04:38:30.665Z,0.00
2022-12-17T04:41:16.203Z,0.00
2022-12-17T04:44:03.355Z,0.00
2022-12-17T04:46:49.178Z,0.00
2022-12-17T04:49:34.444Z,0.00
2022-12-17T04:52:19.828Z,0.00
2022-12-17T04:55:05.180Z,-0.10
2022-12-17T04:57:50.485Z,0.00
2022-12-17T05:00:35.916Z,-0.10
2022-12-17T05:03:32.720Z,-0.10
2022-12-17T05:06:18.554Z,-0.10
2022-12-17T05:09:03.976Z,-0.10
2022-12-17T05:11:49.224Z,-0.10
2022-12-17T05:14:35.213Z,-0.20
2022-12-17T05:17:20.567Z,-0.20
2022-12-17T05:20:05.959Z,-0.20
2022-12-17T05:22:51.352Z,-0.20
2022-12-17T05:25:36.804Z,-0.20
2022-12-17T05:28:22.363Z,-0.30
2022-12-17T05:31:12.271Z,-0.30
2022-12-17T05:33:57.476Z,-0.30
2022-12-17T05:36:42.998Z,-0.30
2022-12-17T05:39:28.322Z,-0.30
2022-12-17T05:42:13.708Z,-0.20
2022-12-17T05:44:59.149Z,-0.30
2022-12-17T05:47:44.456Z,-0.30
2022-12-17T05:50:29.933Z,-0.30
2022-12-17T05:53:23.986Z,-0.30
2022-12-17T05:56:11.042Z,-0.30
2022-12-17T05:58:56.882Z,-0.30
2022-12-17T06:01:42.299Z,-0.40
2022-12-17T06:04:29.197Z,-0.40
2022-12-17T06:07:14.711Z,-0.40
2022-12-17T06:10:07.631Z,-0.40
2022-12-17T06:12:53.025Z,-0.40
2022-12-17T06:15:38.419Z,-0.30
2022-12-17T06:18:23.956Z,-0.30
2022-12-17T06:21:11.208Z,-0.30
2022-12-17T06:23:56.533Z,-0.30
2022-12-17T06:26:42.029Z,-0.30
2022-12-17T06:29:27.501Z,-0.40
2022-12-17T06:32:12.961Z,-0.40
2022-12-17T06:34:58.303Z,-0.40
2022-12-17T06:37:43.712Z,-0.40
2022-12-17T06:40:29.830Z,-0.40
2022-12-17T06:43:15.350Z,-0.50
2022-12-17T06:46:01.063Z,-0.50
2022-12-17T06:48:46.426Z,0.60
2022-12-17T06:51:31.829Z,-0.50
2022-12-17T06:54:16.985Z,-0.50
2022-12-17T06:57:02.415Z,-0.60
2022-12-17T06:59:47.794Z,-0.20
2022-12-17T07:02:33.560Z,-0.60
2022-12-17T07:05:19.067Z,-0.60
2022-12-17T07:08:04.516Z,-0.60
2022-12-17T07:10:49.912Z,-0.30
2022-12-17T07:13:35.739Z,0.70
2022-12-17T07:16:21.320Z,0.00
2022-12-17T07:19:06.664Z,0.10
2022-12-17T07:21:52.100Z,-0.10
2022-12-17T07:24:37.573Z,-0.30
2022-12-17T07:27:23.018Z,-0.50
2022-12-17T07:30:08.115Z,-0.60
2022-12-17T07:32:53.602Z,-0.60
2022-12-17T07:35:39.919Z,-0.60
2022-12-17T07:38:25.527Z,-0.70
2022-12-17T07:41:10.743Z,-0.70
2022-12-17T07:43:56.233Z,-0.70
2022-12-17T07:46:41.747Z,-0.80
2022-12-17T07:49:27.237Z,-0.80
2022-12-17T07:52:12.917Z,-0.80
2022-12-17T07:54:58.440Z,-0.80
2022-12-17T07:57:44.346Z,-0.80
2022-12-17T08:00:30.389Z,-0.70
2022-12-17T08:03:17.679Z,-0.70
2022-12-17T08:06:03.409Z,-0.70
2022-12-17T08:08:48.860Z,-0.70
2022-12-17T08:11:34.271Z,-0.80
2022-12-17T08:14:19.765Z,-0.80
2022-12-17T08:17:05.301Z,-0.60
2022-12-17T08:19:50.408Z,-0.20
2022-12-17T08:22:35.844Z,-0.10
2022-12-17T08:25:21.152Z,-0.20
2022-12-17T08:28:11.223Z,-0.30
2022-12-17T08:31:07.683Z,-0.30
2022-12-17T08:33:53.225Z,-0.40
2022-12-17T08:36:38.762Z,-0.40
2022-12-17T08:39:23.999Z,-0.40
2022-12-17T08:42:09.443Z,-0.40
2022-12-17T08:44:54.826Z,-0.40
2022-12-17T08:47:42.258Z,-0.30
2022-12-17T08:50:27.863Z,-0.30
2022-12-17T08:53:17.251Z,-0.20
2022-12-17T08:56:02.687Z,-0.20
2022-12-17T08:58:48.140Z,-0.20
2022-12-17T09:01:33.577Z,-0.20
2022-12-17T09:04:19.066Z,-0.20
2022-12-17T09:07:04.304Z,-0.20
2022-12-17T09:09:49.921Z,-0.20
2022-12-17T09:12:35.360Z,-0.10
2022-12-17T09:15:20.726Z,-0.10
2022-12-17T09:18:06.017Z,0.00
2022-12-17T09:20:51.392Z,0.00
2022-12-17T09:23:37.263Z,0.20
2022-12-17T09:26:22.721Z,0.20
2022-12-17T09:29:07.994Z,0.30
2022-12-17T09:31:53.362Z,0.40
2022-12-17T09:34:38.627Z,0.30
2022-12-17T09:37:24.076Z,0.40
2022-12-17T09:40:09.539Z,0.40
2022-12-17T09:43:10.145Z,0.50
2022-12-17T09:46:07.275Z,0.50
2022-12-17T09:49:24.651Z,0.60
2022-12-17T09:52:10.143Z,0.70
2022-12-17T09:55:10.248Z,0.60
2022-12-17T09:57:56.244Z,0.70
2022-12-17T10:00:44.352Z,0.50
2022-12-17T10:03:32.675Z,1.40
2022-12-17T10:06:24.978Z,0.80
2022-12-17T10:09:19.802Z,0.80
2022-12-17T10:12:05.224Z,0.80
2022-12-17T10:14:50.722Z,0.80
2022-12-17T10:17:37.669Z,1.10
2022-12-17T10:20:33.164Z,1.00
2022-12-17T10:23:18.370Z,1.00
2022-12-17T10:26:10.198Z,1.10
2022-12-17T10:28:55.580Z,1.00
2022-12-17T10:31:42.087Z,1.10
2022-12-17T10:34:38.975Z,1.10
2022-12-17T10:37:35.991Z,1.10
2022-12-17T10:40:23.597Z,1.10
2022-12-17T10:43:09.062Z,1.20
2022-12-17T10:45:54.629Z,1.30
2022-12-17T10:48:47.484Z,1.40
2022-12-17T10:51:47.315Z,1.30
2022-12-17T10:54:48.940Z,1.30
2022-12-17T10:57:46.442Z,1.30
2022-12-17T11:00:49.015Z,1.40
2022-12-17T11:03:51.613Z,1.60
2022-12-17T11:06:49.333Z,1.80
2022-12-17T11:10:03.709Z,1.80
2022-12-17T11:13:18.389Z,1.90
2022-12-17T11:16:11.950Z,1.90
2022-12-17T11:19:17.252Z,1.70
2022-12-17T11:22:08.759Z,1.60
2022-12-17T11:25:19.332Z,1.80
2022-12-17T11:28:09.190Z,1.80
2022-12-17T11:31:05.143Z,1.90
2022-12-17T11:34:00.889Z,2.00
2022-12-17T11:36:58.882Z,2.10
2022-12-17T11:40:09.929Z,2.20
2022-12-17T11:43:08.006Z,2.20
2022-12-17T11:46:08.652Z,2.20
2022-12-17T11:49:04.571Z,2.20
2022-12-17T11:51:59.651Z,2.20
2022-12-17T11:55:11.005Z,2.30
2022-12-17T11:58:19.207Z,2.40
2022-12-17T12:01:32.544Z,2.40
2022-12-17T12:04:48.006Z,2.50
2022-12-17T12:07:42.090Z,2.40
2022-12-17T12:10:38.568Z,2.40
2022-12-17T12:14:06.591Z,2.50
2022-12-17T12:16:57.281Z,2.50
2022-12-17T12:20:10.929Z,2.50
2022-12-17T12:23:21.416Z,2.60
2022-12-17T12:26:34.089Z,2.60
2022-12-17T12:29:38.296Z,2.70
2022-12-17T12:32:40.952Z,2.70
2022-12-17T12:35:33.309Z,2.70
2022-12-17T12:38:20.401Z,2.70
2022-12-17T12:41:17.333Z,2.70
2022-12-17T12:44:09.684Z,2.80
2022-12-17T12:47:05.319Z,2.80
2022-12-17T12:50:33.449Z,2.90
2022-12-17T12:53:19.328Z,2.80
2022-12-17T12:56:04.829Z,2.80
2022-12-17T12:58:51.815Z,2.70
2022-12-17T13:01:38.185Z,2.70
2022-12-17T13:04:48.277Z,2.70
2022-12-17T13:07:26.459Z,2.80
2022-12-17T13:09:56.648Z,2.80
2022-12-17T13:12:47.070Z,2.80
2022-12-17T13:15:20.203Z,2.80
2022-12-17T13:18:34.605Z,2.80
2022-12-17T13:21:05.308Z,2.80
2022-12-17T13:23:38.087Z,2.80
2022-12-17T13:26:31.047Z,2.70
2022-12-17T13:28:59.728Z,2.80
2022-12-17T13:31:29.798Z,2.80
2022-12-17T13:34:16.834Z,2.80
2022-12-17T13:36:51.901Z,2.70
2022-12-17T13:39:59.845Z,2.70
2022-12-17T13:42:35.743Z,2.70
2022-12-17T13:45:03.331Z,2.70
2022-12-17T13:47:35.141Z,2.70
2022-12-17T13:50:33.895Z,2.60
2022-12-17T13:53:12.933Z,2.60
2022-12-17T13:55:40.182Z,2.80
2022-12-17T13:58:20.093Z,2.70
2022-12-17T14:00:46.775Z,2.60
2022-12-17T14:03:28.447Z,2.60
2022-12-17T14:06:08.325Z,2.50
2022-12-17T14:08:35.426Z,2.30
2022-12-17T14:11:20.990Z,2.30
2022-12-17T14:13:50.127Z,2.40
2022-12-17T14:16:18.696Z,2.40
2022-12-17T14:18:50.031Z,2.30
2022-12-17T14:21:17.052Z,2.40
2022-12-17T14:23:45.037Z,3.10
2022-12-17T14:26:12.642Z,2.40
2022-12-17T14:28:50.675Z,2.50
2022-12-17T14:31:28.957Z,2.40
2022-12-17T14:34:11.573Z,2.40
2022-12-17T14:36:41.622Z,2.40
2022-12-17T14:39:32.839Z,2.30
2022-12-17T14:42:25.695Z,2.20
2022-12-17T14:44:59.903Z,2.20
2022-12-17T14:47:28.471Z,2.20
2022-12-17T14:49:57.828Z,2.20
2022-12-17T14:52:35.149Z,2.20
2022-12-17T14:55:21.400Z,2.20
2022-12-17T14:57:48.886Z,2.10
2022-12-17T15:00:15.849Z,2.10
2022-12-17T15:02:43.945Z,2.10
2022-12-17T15:05:17.018Z,2.00
2022-12-17T15:07:43.779Z,1.90
2022-12-17T15:10:13.237Z,1.00
2022-12-17T15:12:42.334Z,1.80
2022-12-17T15:15:13.510Z,1.90
2022-12-17T15:17:40.762Z,1.80
2022-12-17T15:20:10.079Z,1.60
2022-12-17T15:22:38.013Z,1.70
2022-12-17T15:25:05.193Z,1.70
2022-12-17T15:27:31.835Z,1.60
2022-12-17T15:29:58.470Z,1.60
2022-12-17T15:32:25.112Z,1.70
2022-12-17T15:34:51.736Z,1.80
2022-12-17T15:37:25.272Z,1.80
2022-12-17T15:39:52.469Z,1.80
2022-12-17T15:42:38.011Z,1.90
2022-12-17T15:45:05.276Z,1.80
2022-12-17T15:47:31.868Z,1.80
2022-12-17T15:49:58.599Z,1.80
2022-12-17T15:52:25.251Z,1.80
2022-12-17T15:54:51.905Z,1.80
2022-12-17T15:57:19.018Z,1.80
2022-12-17T15:59:45.802Z,1.70
2022-12-17T16:02:12.885Z,1.70
2022-12-17T16:04:40.933Z,1.60
2022-12-17T16:07:07.538Z,1.70
2022-12-17T16:09:34.125Z,1.60
2022-12-17T16:12:00.743Z,1.60
2022-12-17T16:14:27.333Z,1.60
2022-12-17T16:16:53.943Z,1.50
2022-12-17T16:19:23.599Z,1.50
2022-12-17T16:21:50.314Z,1.50
2022-12-17T16:24:16.977Z,1.50
2022-12-17T16:26:43.603Z,1.50
2022-12-17T16:29:10.223Z,1.40
2022-12-17T16:31:37.308Z,1.30
2022-12-17T16:34:08.878Z,1.30
2022-12-17T16:36:35.860Z,1.40
2022-12-17T16:39:03.486Z,1.40
2022-12-17T16:41:30.155Z,1.30
2022-12-17T16:43:56.853Z,1.30
2022-12-17T16:46:39.071Z,1.30
2022-12-17T16:49:18.126Z,1.30
2022-12-17T16:51:46.615Z,1.30
2022-12-17T16:54:15.835Z,1.30
2022-12-17T16:56:44.554Z,1.30
2022-12-17T16:59:12.124Z,1.40
2022-12-17T17:01:40.994Z,1.40
2022-12-17T17:04:09.447Z,1.30
2022-12-17T17:06:45.077Z,1.30
2022-12-17T17:09:13.132Z,1.30
2022-12-17T17:11:40.319Z,1.20
2022-12-17T17:14:07.773Z,1.10
2022-12-17T17:16:34.913Z,1.10
2022-12-17T17:19:02.251Z,1.10
2022-12-17T17:21:34.150Z,1.10
2022-12-17T17:24:07.088Z,1.10
2022-12-17T17:26:34.899Z,1.10
2022-12-17T17:29:01.913Z,1.20
2022-12-17T17:32:01.219Z,1.20
2022-12-17T17:34:15.631Z,1.20
2022-12-17T17:36:42.693Z,1.20
2022-12-17T17:39:09.412Z,1.10
2022-12-17T17:41:36.443Z,1.10
2022-12-17T17:44:06.108Z,1.00
2022-12-17T17:46:33.398Z,1.00
2022-12-17T17:49:01.817Z,1.00
2022-12-17T17:52:07.334Z,1.00
2022-12-17T17:54:18.218Z,0.90
2022-12-17T17:56:44.822Z,1.00
2022-12-17T17:59:19.151Z,0.90
2022-12-17T18:01:49.679Z,0.90
2022-12-17T18:04:20.131Z,0.90
2022-12-17T18:07:23.095Z,0.80
2022-12-17T18:09:35.261Z,0.80
2022-12-17T18:12:23.140Z,0.80
2022-12-17T18:15:12.559Z,0.80
2022-12-17T18:17:36.582Z,0.90
2022-12-17T18:20:03.799Z,0.90
2022-12-17T18:22:30.387Z,0.90
2022-12-17T18:24:57.043Z,0.90
2022-12-17T18:27:23.642Z,0.80
2022-12-17T18:29:50.238Z,0.80
2022-12-17T18:32:16.937Z,0.80
2022-12-17T18:34:43.766Z,0.70
2022-12-17T18:37:10.530Z,0.70
2022-12-17T18:39:37.262Z,1.80
2022-12-17T18:42:22.542Z,0.70
2022-12-17T18:44:49.133Z,0.70
2022-12-17T18:47:15.836Z,0.70
2022-12-17T18:49:42.513Z,0.80
2022-12-17T18:52:14.788Z,0.70
2022-12-17T18:54:43.252Z,0.90
2022-12-17T18:57:09.939Z,0.70
2022-12-17T18:59:37.368Z,0.70
2022-12-17T19:02:04.314Z,0.70
2022-12-17T19:04:32.883Z,-0.10
2022-12-17T19:06:59.728Z,0.70
2022-12-17T19:09:35.632Z,0.60
2022-12-17T19:12:04.258Z,0.60
2022-12-17T19:14:31.027Z,0.60
2022-12-17T19:16:58.075Z,0.60
2022-12-17T19:19:26.479Z,0.30
2022-12-17T19:21:56.453Z,0.60
2022-12-17T19:24:23.714Z,0.60
2022-12-17T19:26:51.570Z,0.60
2022-12-17T19:29:19.927Z,0.60
2022-12-17T19:31:46.993Z,0.50
2022-12-17T19:34:15.652Z,0.50
2022-12-17T19:36:42.885Z,0.50
2022-12-17T19:39:13.093Z,0.50
2022-12-17T19:41:39.930Z,0.50
2022-12-17T19:44:08.870Z,0.50
2022-12-17T19:46:36.459Z,0.50
2022-12-17T19:49:04.177Z,0.40
2022-12-17T19:51:32.247Z,0.40
2022-12-17T19:54:04.772Z,0.20
2022-12-17T19:56:35.057Z,0.20
2022-12-17T19:59:07.496Z,0.10
2022-12-17T20:01:37.377Z,0.00
2022-12-17T20:04:05.493Z,0.00
2022-12-17T20:06:34.556Z,0.00
2022-12-17T20:09:03.814Z,0.10
2022-12-17T20:11:33.248Z,0.10
2022-12-17T20:14:13.810Z,0.00
2022-12-17T20:16:42.618Z,0.00
2022-12-17T20:19:12.833Z,-0.10
2022-12-17T20:21:39.528Z,-0.10
2022-12-17T20:24:06.517Z,-0.10
2022-12-17T20:26:33.451Z,-0.10
2022-12-17T20:29:00.708Z,-0.10
2022-12-17T20:31:27.644Z,-0.10
2022-12-17T20:33:54.477Z,-0.20
2022-12-17T20:36:22.338Z,0.70
2022-12-17T20:38:49.424Z,-0.20
2022-12-17T20:41:20.722Z,-0.20
2022-12-17T20:43:47.806Z,-0.10
2022-12-17T20:46:14.937Z,0.00
2022-12-17T20:48:43.087Z,0.70
2022-12-17T20:51:12.811Z,0.00
2022-12-17T20:53:39.882Z,0.10
2022-12-17T20:56:11.361Z,0.10
2022-12-17T20:58:39.355Z,0.00
2022-12-17T21:01:18.730Z,0.00
2022-12-17T21:03:46.821Z,-0.20
2022-12-17T21:06:19.646Z,-0.10
2022-12-17T21:08:50.914Z,-0.10
2022-12-17T21:11:19.843Z,0.00
2022-12-17T21:13:46.832Z,0.40
2022-12-17T21:16:17.003Z,0.40
2022-12-17T21:18:43.754Z,0.30
2022-12-17T21:21:13.879Z,0.10
2022-12-17T21:23:41.496Z,-0.90
2022-12-17T21:26:18.474Z,0.00
2022-12-17T21:28:47.288Z,-0.10
2022-12-17T21:31:22.621Z,-0.10
2022-12-17T21:33:51.388Z,-0.10
2022-12-17T21:36:20.020Z,-0.10
2022-12-17T21:38:47.373Z,-0.10
2022-12-17T21:41:16.959Z,0.00
2022-12-17T21:43:44.368Z,-0.10
2022-12-17T21:46:12.358Z,-0.10
2022-12-17T21:48:42.174Z,-0.10
2022-12-17T21:51:11.841Z,-0.10
2022-12-17T21:53:42.239Z,-0.20
2022-12-17T21:56:15.049Z,-0.10
2022-12-17T21:58:43.738Z,-0.10
2022-12-17T22:01:18.835Z,-0.20
2022-12-17T22:03:51.349Z,-0.20
2022-12-17T22:06:22.921Z,-0.30
2022-12-17T22:08:51.102Z,-0.30
2022-12-17T22:11:25.536Z,-0.80
2022-12-17T22:14:17.023Z,-0.20
2022-12-17T22:16:49.359Z,-0.20
2022-12-17T22:19:21.094Z,-0.30
2022-12-17T22:21:50.439Z,-0.30
2022-12-17T22:24:22.499Z,-0.40
2022-12-17T22:26:49.182Z,-0.40
2022-12-17T22:29:34.613Z,-0.40
2022-12-17T22:32:19.783Z,-0.30
2022-12-17T22:35:57.541Z,-0.30
2022-12-17T22:39:14.851Z,-0.30
2022-12-17T22:43:34.105Z,-0.30
2022-12-17T22:44:42.958Z,-0.30
2022-12-17T22:46:17.038Z,-0.30
2022-12-17T22:48:44.150Z,-0.30
2022-12-17T22:51:14.543Z,-0.40
2022-12-17T22:53:50.743Z,-0.40
2022-12-17T22:56:36.540Z,-0.40
2022-12-17T22:59:06.017Z,-0.40
2022-12-17T23:01:33.376Z,-0.40
2022-12-17T23:04:02.673Z,-0.40
2022-12-17T23:06:29.503Z,-0.40
2022-12-17T23:08:56.330Z,-0.50
2022-12-17T23:11:25.050Z,0.40
2022-12-17T23:13:53.109Z,-0.60
2022-12-17T23:16:20.719Z,-0.60
2022-12-17T23:18:49.248Z,-0.50
2022-12-17T23:21:25.617Z,-0.60
2022-12-17T23:23:54.576Z,-0.60
2022-12-17T23:26:24.603Z,-0.60
2022-12-17T23:29:04.860Z,-0.60
2022-12-17T23:31:35.866Z,-0.50
2022-12-17T23:34:03.678Z,-0.40
2022-12-17T23:36:30.352Z,-0.50
2022-12-17T23:38:57.303Z,-0.60
2022-12-17T23:41:26.928Z,-1.00
2022-12-17T23:43:54.351Z,-1.10
2022-12-17T23:46:22.256Z,-1.00
2022-12-17T23:48:49.434Z,-1.00
2022-12-17T23:51:19.150Z,-1.00
2022-12-17T23:53:46.070Z,-1.10
2022-12-17T23:56:18.549Z,-1.10
2022-12-17T23:58:46.056Z,-1.00
